createdAt,value
2022-09-29T00:00:44.918Z,127.26
2022-09-29T00:06:09.405Z,127.55
2022-09-29T00:11:01.347Z,128.42
2022-09-29T00:16:01.354Z,129.01
2022-09-29T00:21:01.220Z,128.62
2022-09-29T00:26:01.117Z,129.11
2022-09-29T00:31:01.084Z,130.01
2022-09-29T00:36:00.996Z,129.91
2022-09-29T00:41:01.002Z,130.51
2022-09-29T00:46:00.918Z,130.31
2022-09-29T00:51:00.819Z,130.91
2022-09-29T00:56:00.745Z,131.12
2022-09-29T01:01:00.758Z,132.15
2022-09-29T01:06:00.650Z,132.15
2022-09-29T01:11:00.550Z,132.25
2022-09-29T01:16:00.499Z,132.35
2022-09-29T01:21:00.398Z,133.50
2022-09-29T01:26:00.333Z,133.72
2022-09-29T01:31:00.358Z,134.03
2022-09-29T01:36:00.208Z,134.89
2022-09-29T01:41:00.225Z,135.54
2022-09-29T01:46:00.178Z,135.32
2022-09-29T01:51:00.007Z,136.53
2022-09-29T01:55:59.976Z,136.31
2022-09-29T02:00:59.883Z,136.97
2022-09-29T02:05:59.826Z,137.31
2022-09-29T02:10:59.803Z,137.53
2022-09-29T02:15:59.718Z,137.53
2022-09-29T02:20:59.688Z,138.21
2022-09-29T02:25:59.531Z,139.00
2022-09-29T02:30:59.520Z,139.81
2022-09-29T02:35:59.411Z,139.00
2022-09-29T02:40:59.385Z,139.46
2022-09-29T02:45:59.349Z,140.98
2022-09-29T02:50:59.227Z,140.27
2022-09-29T02:55:59.151Z,140.86
2022-09-29T03:00:59.111Z,141.45
2022-09-29T03:05:59.046Z,141.93
2022-09-29T03:10:58.962Z,141.81
2022-09-29T03:15:58.982Z,142.40
2022-09-29T03:20:58.821Z,142.40
2022-09-29T03:25:58.764Z,142.65
2022-09-29T03:30:58.694Z,142.89
2022-09-29T03:35:58.626Z,142.40
2022-09-29T03:40:58.593Z,143.49
2022-09-29T03:45:58.515Z,142.52
2022-09-29T03:50:58.437Z,142.52
2022-09-29T03:55:58.350Z,142.52
2022-09-29T04:00:58.335Z,142.40
2022-09-29T04:05:58.227Z,141.57
2022-09-29T04:10:58.176Z,141.21
2022-09-29T04:16:07.089Z,140.98
2022-09-29T04:20:59.973Z,141.21
2022-09-29T04:25:59.935Z,141.10
2022-09-29T04:31:00.808Z,140.98
2022-09-29T04:36:00.752Z,141.10
2022-09-29T04:40:59.829Z,141.57
2022-09-29T04:46:00.085Z,141.21
2022-09-29T04:50:59.616Z,142.40
2022-09-29T04:56:01.798Z,140.98
2022-09-29T05:00:59.533Z,141.69
2022-09-29T05:05:59.391Z,142.65
2022-09-29T05:10:59.343Z,142.77
2022-09-29T05:16:00.281Z,142.04
2022-09-29T05:21:16.171Z,142.16
2022-09-29T05:26:01.088Z,141.69
2022-09-29T05:30:59.072Z,141.81
2022-09-29T05:35:59.971Z,142.40
2022-09-29T05:40:59.120Z,141.45
2022-09-29T05:45:58.898Z,142.16
2022-09-29T05:50:58.811Z,142.16
2022-09-29T05:55:58.731Z,142.40
2022-09-29T06:00:59.592Z,142.04
2022-09-29T06:05:58.710Z,142.16
2022-09-29T06:10:58.571Z,141.57
2022-09-29T06:15:58.501Z,141.45
2022-09-29T06:20:58.439Z,141.10
2022-09-29T06:25:58.354Z,141.81
2022-09-29T06:30:58.302Z,141.21
2022-09-29T06:35:58.317Z,140.62
2022-09-29T06:40:58.208Z,141.21
2022-09-29T06:45:58.159Z,140.98
2022-09-29T06:51:08.356Z,140.51
2022-09-29T06:55:58.980Z,140.74
2022-09-29T07:00:58.652Z,139.93
2022-09-29T07:06:18.276Z,141.21
2022-09-29T07:10:58.776Z,140.16
2022-09-29T07:15:58.233Z,140.51
2022-09-29T07:20:57.630Z,139.58
2022-09-29T07:25:57.559Z,138.89
2022-09-29T07:31:07.593Z,139.46
2022-09-29T07:35:58.433Z,140.04
2022-09-29T07:40:57.419Z,138.89
2022-09-29T07:45:57.365Z,139.12
2022-09-29T07:50:57.237Z,137.53
2022-09-29T07:55:57.176Z,136.53
2022-09-29T08:00:57.165Z,135.32
2022-09-29T08:05:57.064Z,134.25
2022-09-29T08:10:56.975Z,133.19
2022-09-29T08:15:56.931Z,132.25
2022-09-29T08:20:59.938Z,131.32
2022-09-29T08:26:01.703Z,130.61
2022-09-29T08:30:59.851Z,128.82
2022-09-29T08:35:57.672Z,127.94
2022-09-29T08:40:56.692Z,127.26
2022-09-29T08:46:00.946Z,127.17
2022-09-29T08:50:56.439Z,127.74
2022-09-29T08:55:56.737Z,127.07
2022-09-29T09:00:56.368Z,126.50
2022-09-29T09:05:56.247Z,125.65
2022-09-29T09:10:56.183Z,124.26
2022-09-29T09:15:56.147Z,123.08
2022-09-29T09:20:56.074Z,121.23
2022-09-29T09:25:56.026Z,119.94
2022-09-29T09:30:56.029Z,118.75
2022-09-29T09:35:58.969Z,116.54
2022-09-29T09:40:55.823Z,114.95
2022-09-29T09:45:55.747Z,111.90
2022-09-29T09:50:55.697Z,108.66
2022-09-29T09:55:55.607Z,106.67
2022-09-29T10:00:55.565Z,103.21
2022-09-29T10:05:55.460Z,100.21
2022-09-29T10:10:59.595Z,97.32
2022-09-29T10:15:55.350Z,93.64
2022-09-29T10:20:55.255Z,89.84
2022-09-29T10:25:55.233Z,82.06
2022-09-29T10:30:55.192Z,74.72
2022-09-29T10:35:55.064Z,69.32
2022-09-29T10:40:55.197Z,63.91
2022-09-29T10:45:55.036Z,59.96
2022-09-29T10:50:55.027Z,57.78
2022-09-29T10:55:54.796Z,56.43
2022-09-29T11:00:54.774Z,55.58
2022-09-29T11:05:54.789Z,53.74
2022-09-29T11:10:54.578Z,51.72
2022-09-29T11:15:54.931Z,49.57
2022-09-29T11:20:54.452Z,47.61
2022-09-29T11:25:54.414Z,46.46
2022-09-29T11:30:54.424Z,45.17
2022-09-29T11:35:54.280Z,44.45
2022-09-29T11:40:54.247Z,43.62
2022-09-29T11:45:54.170Z,42.78
2022-09-29T11:50:54.092Z,42.53
2022-09-29T11:55:54.021Z,42.19
2022-09-29T12:00:53.894Z,42.70
2022-09-29T12:05:53.964Z,43.09
2022-09-29T12:10:53.800Z,43.99
2022-09-29T12:15:54.775Z,44.97
2022-09-29T12:20:53.758Z,46.35
2022-09-29T12:25:53.596Z,47.74
2022-09-29T12:30:53.614Z,49.34
2022-09-29T12:35:53.562Z,50.58
2022-09-29T12:40:53.387Z,51.95
2022-09-29T12:45:53.397Z,53.40
2022-09-29T12:50:53.253Z,55.65
2022-09-29T12:55:53.186Z,57.94
2022-09-29T13:00:53.146Z,60.13
2022-09-29T13:05:53.065Z,62.03
2022-09-29T13:10:53.051Z,63.96
2022-09-29T13:15:53.027Z,66.01
2022-09-29T13:20:52.883Z,67.76
2022-09-29T13:25:52.798Z,69.83
2022-09-29T13:30:52.777Z,71.98
2022-09-29T13:35:52.715Z,73.10
2022-09-29T13:40:52.596Z,74.59
2022-09-29T13:45:52.603Z,75.32
2022-09-29T13:50:52.476Z,76.83
2022-09-29T13:55:52.404Z,77.75
2022-09-29T14:00:52.339Z,78.99
2022-09-29T14:05:52.314Z,80.19
2022-09-29T14:10:52.233Z,81.58
2022-09-29T14:15:52.214Z,82.14
2022-09-29T14:20:52.127Z,83.69
2022-09-29T14:25:52.038Z,85.04
2022-09-29T14:30:52.110Z,85.90
2022-09-29T14:35:51.857Z,86.79
2022-09-29T14:40:51.909Z,87.69
2022-09-29T14:45:51.762Z,88.52
2022-09-29T14:50:51.677Z,89.36
2022-09-29T14:55:51.626Z,90.51
2022-09-29T15:00:51.565Z,91.89
2022-09-29T15:05:51.703Z,92.90
2022-09-29T15:10:51.412Z,93.62
2022-09-29T15:15:51.384Z,94.25
2022-09-29T15:20:51.263Z,93.83
2022-09-29T15:25:51.259Z,94.86
2022-09-29T15:30:51.506Z,95.61
2022-09-29T15:35:51.152Z,96.37
2022-09-29T15:40:51.003Z,96.93
2022-09-29T15:45:51.047Z,97.77
2022-09-29T15:50:50.900Z,98.11
2022-09-29T15:55:50.805Z,98.68
2022-09-29T16:00:52.398Z,99.44
2022-09-29T16:05:50.746Z,100.45
2022-09-29T16:10:50.700Z,101.23
2022-09-29T16:15:50.685Z,101.17
2022-09-29T16:20:50.477Z,101.96
2022-09-29T16:25:50.424Z,102.52
2022-09-29T16:30:50.381Z,102.58
2022-09-29T16:35:50.282Z,103.65
2022-09-29T16:40:50.208Z,103.85
2022-09-29T16:45:50.204Z,105.27
2022-09-29T16:50:50.067Z,105.34
2022-09-29T16:55:50.009Z,106.26
2022-09-29T17:00:50.011Z,107.28
2022-09-29T17:05:49.905Z,108.03
2022-09-29T17:10:49.815Z,108.52
2022-09-29T17:15:49.793Z,109.93
2022-09-29T17:20:49.671Z,110.51
2022-09-29T17:25:49.662Z,111.61
2022-09-29T17:30:49.571Z,112.72
2022-09-29T17:35:51.577Z,113.33
2022-09-29T17:40:50.424Z,114.72
2022-09-29T17:45:49.366Z,114.48
2022-09-29T17:50:49.304Z,115.03
2022-09-29T17:55:49.264Z,115.90
2022-09-29T18:00:49.195Z,116.86
2022-09-29T18:05:49.283Z,117.27
2022-09-29T18:10:49.048Z,119.17
2022-09-29T18:15:49.196Z,119.34
2022-09-29T18:20:48.893Z,120.54
2022-09-29T18:25:48.839Z,120.62
2022-09-29T18:30:48.873Z,121.49
2022-09-29T18:35:48.709Z,122.73
2022-09-29T18:40:48.628Z,123.36
2022-09-29T18:45:48.584Z,123.90
2022-09-29T18:50:48.503Z,124.45
2022-09-29T18:55:48.421Z,125.37
2022-09-29T19:00:48.382Z,126.40
2022-09-29T19:05:48.302Z,126.69
2022-09-29T19:10:48.244Z,127.84
2022-09-29T19:15:48.240Z,128.52
2022-09-29T19:20:48.111Z,129.11
2022-09-29T19:25:48.017Z,129.31
2022-09-29T19:30:48.061Z,129.81
2022-09-29T19:35:47.888Z,130.31
2022-09-29T19:40:47.880Z,129.91
2022-09-29T19:45:47.804Z,131.43
2022-09-29T19:50:47.720Z,131.73
2022-09-29T19:55:47.661Z,132.15
2022-09-29T20:00:47.647Z,131.63
2022-09-29T20:05:47.517Z,132.15
2022-09-29T20:10:47.411Z,133.40
2022-09-29T20:15:47.479Z,132.56
2022-09-29T20:20:47.300Z,133.19
2022-09-29T20:25:47.240Z,133.82
2022-09-29T20:30:47.343Z,134.35
2022-09-29T20:35:47.159Z,135.43
2022-09-29T20:40:47.111Z,135.98
2022-09-29T20:45:47.094Z,136.75
2022-09-29T20:50:46.926Z,136.75
2022-09-29T20:55:46.850Z,137.53
2022-09-29T21:00:46.804Z,138.21
2022-09-29T21:05:46.715Z,138.21
2022-09-29T21:10:46.777Z,139.35
2022-09-29T21:15:46.687Z,139.69
2022-09-29T21:20:46.537Z,140.74
2022-09-29T21:25:46.536Z,140.98
2022-09-29T21:30:46.385Z,141.21
2022-09-29T21:35:46.334Z,141.45
2022-09-29T21:40:46.309Z,141.45
2022-09-29T21:45:46.183Z,141.45
2022-09-29T21:50:46.122Z,142.29
2022-09-29T21:55:46.064Z,142.29
2022-09-29T22:00:46.010Z,143.62
2022-09-29T22:05:45.900Z,143.13
2022-09-29T22:10:45.863Z,143.62
2022-09-29T22:15:45.842Z,144.11
2022-09-29T22:20:45.825Z,144.85
2022-09-29T22:25:45.679Z,145.47
2022-09-29T22:30:45.617Z,144.85
2022-09-29T22:35:45.586Z,146.23
2022-09-29T22:40:45.485Z,146.74
2022-09-29T22:45:45.403Z,146.48
2022-09-29T22:50:45.360Z,146.23
2022-09-29T22:55:45.303Z,147.12
2022-09-29T23:00:45.217Z,148.16
2022-09-29T23:05:45.215Z,147.90
2022-09-29T23:10:45.111Z,149.07
2022-09-29T23:15:45.055Z,150.00
2022-09-29T23:20:44.931Z,149.20
2022-09-29T23:25:44.929Z,150.00
2022-09-29T23:30:44.883Z,149.34
2022-09-29T23:35:44.745Z,151.07
2022-09-29T23:40:44.692Z,150.40
2022-09-29T23:45:44.594Z,151.21
2022-09-29T23:50:44.532Z,151.21
2022-09-29T23:55:44.508Z,151.62
